METAR AND TAF INFORMATION
METAR FOR KHZR
ADDS - METARS form results

(0214 UTC 28 September 2022)
Data provider http://aviationweather.gov/metar/data/
 
METAR text: KHZR 280155Z AUTO 01005KT 10SM CLR 18/10 A3012 RMK AO2 T01840104
Conditions at: KHZR (NEW ROADS , LA, US) observed 0155 UTC 28 September 2022
Temperature: 18.4°C (65°F)
Dewpoint: 10.4°C (51°F) [RH = 60%]
Pressure (altimeter): 30.12 inches Hg (1020.1 mb)
Winds: from the N (10 degrees) at 6 MPH (5 knots; 2.6 m/s)
Visibility: 10 or more miles (16+ km)
Ceiling: at least 12,000 feet AGL
Clouds: sky clear below 12,000 feet AGL
Weather: automated observation with no human augmentation;
there may or may not be significant weather present at this time

METAR text: KHZR 280135Z AUTO 01006KT 10SM CLR 19/11 A3010 RMK AO2 T01860105
Conditions at: KHZR (NEW ROADS , LA, US) observed 0135 UTC 28 September 2022
Temperature: 18.6°C (65°F)
Dewpoint: 10.5°C (51°F) [RH = 59%]
Pressure (altimeter): 30.10 inches Hg (1019.4 mb)
Winds: from the N (10 degrees) at 7 MPH (6 knots; 3.1 m/s)
Visibility: 10 or more miles (16+ km)
Ceiling: at least 12,000 feet AGL
Clouds: sky clear below 12,000 feet AGL
Weather: automated observation with no human augmentation;
there may or may not be significant weather present at this time

METAR text: KHZR 280115Z AUTO 01005KT 10SM CLR 19/11 A3010 RMK AO2 T01870108
Conditions at: KHZR (NEW ROADS , LA, US) observed 0115 UTC 28 September 2022
Temperature: 18.7°C (66°F)
Dewpoint: 10.8°C (51°F) [RH = 60%]
Pressure (altimeter): 30.10 inches Hg (1019.4 mb)
Winds: from the N (10 degrees) at 6 MPH (5 knots; 2.6 m/s)
Visibility: 10 or more miles (16+ km)
Ceiling: at least 12,000 feet AGL
Clouds: sky clear below 12,000 feet AGL
Weather: automated observation with no human augmentation;
there may or may not be significant weather present at this time

 AIRPORT MAP

 RUNWAY INFORMATION
Runway 18 Runway length 5002 ft Runway width 75 ft
Runway elevation 39 ft Runway displaced threshold 0 ft Runway heading 184
Runway 36 Runway length 5002 ft Runway width 75 ft
Runway elevation 32 ft Runway displaced threshold 0 ft Runway heading 4

 AIRPORT FREQUENCIES
Type A/D Name BATON ROUG Frequency 120.3 MHZ
Type UNIC Name CTAF/UNICO Frequency 122.8 MHZ

 AIRPORT NEAR NAVIGATION AIDS





Powered by Virtual Airlines Manager

Maps by Rafael Santos